sensor_id;sensor_type;location;lat;lon;timestamp;temperature;humidity
65203;HTU21D;51788;45.124;38.966;2023-05-27T00:00:25;19.23;87.40
65203;HTU21D;51788;45.124;38.966;2023-05-27T00:02:51;19.23;87.40
65203;HTU21D;51788;45.124;38.966;2023-05-27T00:05:17;19.23;87.39
65203;HTU21D;51788;45.124;38.966;2023-05-27T00:07:43;19.22;87.38
65203;HTU21D;51788;45.124;38.966;2023-05-27T00:10:09;19.22;87.36
65203;HTU21D;51788;45.124;38.966;2023-05-27T00:12:35;19.22;87.38
65203;HTU21D;51788;45.124;38.966;2023-05-27T00:15:01;19.23;87.38
65203;HTU21D;51788;45.124;38.966;2023-05-27T00:17:27;19.24;87.39
65203;HTU21D;51788;45.124;38.966;2023-05-27T00:19:53;19.23;87.40
65203;HTU21D;51788;45.124;38.966;2023-05-27T00:22:19;19.21;87.43
65203;HTU21D;51788;45.124;38.966;2023-05-27T00:24:45;19.22;87.45
65203;HTU21D;51788;45.124;38.966;2023-05-27T00:27:11;19.21;87.47
65203;HTU21D;51788;45.124;38.966;2023-05-27T00:29:37;19.21;87.48
65203;HTU21D;51788;45.124;38.966;2023-05-27T00:32:03;19.18;87.54
65203;HTU21D;51788;45.124;38.966;2023-05-27T00:34:31;19.18;87.54
65203;HTU21D;51788;45.124;38.966;2023-05-27T00:36:58;19.18;87.56
65203;HTU21D;51788;45.124;38.966;2023-05-27T00:39:24;19.17;87.57
65203;HTU21D;51788;45.124;38.966;2023-05-27T00:41:51;19.17;87.60
65203;HTU21D;51788;45.124;38.966;2023-05-27T00:44:17;19.15;87.59
65203;HTU21D;51788;45.124;38.966;2023-05-27T00:46:47;19.17;87.58
65203;HTU21D;51788;45.124;38.966;2023-05-27T00:49:14;19.17;87.55
65203;HTU21D;51788;45.124;38.966;2023-05-27T00:51:41;19.17;87.54
65203;HTU21D;51788;45.124;38.966;2023-05-27T00:54:07;19.17;87.54
65203;HTU21D;51788;45.124;38.966;2023-05-27T00:56:34;19.17;87.56
65203;HTU21D;51788;45.124;38.966;2023-05-27T00:59:00;19.17;87.57
65203;HTU21D;51788;45.124;38.966;2023-05-27T01:01:26;19.16;87.58
65203;HTU21D;51788;45.124;38.966;2023-05-27T01:03:55;19.15;87.61
65203;HTU21D;51788;45.124;38.966;2023-05-27T01:15:22;19.14;87.60
65203;HTU21D;51788;45.124;38.966;2023-05-27T01:17:50;19.13;87.65
65203;HTU21D;51788;45.124;38.966;2023-05-27T01:20:20;19.12;87.66
65203;HTU21D;51788;45.124;38.966;2023-05-27T01:22:49;19.09;87.75
65203;HTU21D;51788;45.124;38.966;2023-05-27T01:25:19;19.11;87.78
65203;HTU21D;51788;45.124;38.966;2023-05-27T01:27:45;19.12;87.80
65203;HTU21D;51788;45.124;38.966;2023-05-27T01:30:12;19.11;87.83
65203;HTU21D;51788;45.124;38.966;2023-05-27T01:32:47;19.11;87.89
65203;HTU21D;51788;45.124;38.966;2023-05-27T01:38:08;19.11;87.84
65203;HTU21D;51788;45.124;38.966;2023-05-27T01:40:38;19.09;87.85
65203;HTU21D;51788;45.124;38.966;2023-05-27T01:43:06;19.09;87.90
65203;HTU21D;51788;45.124;38.966;2023-05-27T01:45:33;19.08;87.96
65203;HTU21D;51788;45.124;38.966;2023-05-27T01:48:01;19.08;87.98
65203;HTU21D;51788;45.124;38.966;2023-05-27T01:50:27;19.07;88.02
65203;HTU21D;51788;45.124;38.966;2023-05-27T01:52:56;19.08;88.01
65203;HTU21D;51788;45.124;38.966;2023-05-27T01:55:22;19.08;88.03
65203;HTU21D;51788;45.124;38.966;2023-05-27T01:57:48;19.08;88.09
65203;HTU21D;51788;45.124;38.966;2023-05-27T02:00:16;19.10;88.08
65203;HTU21D;51788;45.124;38.966;2023-05-27T02:02:45;19.11;88.03
65203;HTU21D;51788;45.124;38.966;2023-05-27T02:05:13;19.13;88.02
65203;HTU21D;51788;45.124;38.966;2023-05-27T02:07:40;19.13;88.01
65203;HTU21D;51788;45.124;38.966;2023-05-27T02:10:06;19.14;88.00
65203;HTU21D;51788;45.124;38.966;2023-05-27T02:12:32;19.15;87.99
65203;HTU21D;51788;45.124;38.966;2023-05-27T02:14:58;19.14;88.00
65203;HTU21D;51788;45.124;38.966;2023-05-27T02:17:25;19.14;88.03
65203;HTU21D;51788;45.124;38.966;2023-05-27T02:19:53;19.16;88.04
65203;HTU21D;51788;45.124;38.966;2023-05-27T02:22:21;19.14;88.09
65203;HTU21D;51788;45.124;38.966;2023-05-27T02:24:47;19.14;88.11
65203;HTU21D;51788;45.124;38.966;2023-05-27T02:27:14;19.15;88.13
65203;HTU21D;51788;45.124;38.966;2023-05-27T02:29:40;19.13;88.17
65203;HTU21D;51788;45.124;38.966;2023-05-27T02:32:06;19.13;88.18
65203;HTU21D;51788;45.124;38.966;2023-05-27T02:34:32;19.12;88.21
65203;HTU21D;51788;45.124;38.966;2023-05-27T02:37:04;19.13;88.18
65203;HTU21D;51788;45.124;38.966;2023-05-27T02:39:30;19.14;88.18
65203;HTU21D;51788;45.124;38.966;2023-05-27T02:41:56;19.16;88.14
65203;HTU21D;51788;45.124;38.966;2023-05-27T02:44:23;19.17;88.14
65203;HTU21D;51788;45.124;38.966;2023-05-27T02:46:49;19.21;88.15
65203;HTU21D;51788;45.124;38.966;2023-05-27T02:49:15;19.24;88.09
65203;HTU21D;51788;45.124;38.966;2023-05-27T02:51:42;19.27;88.06
65203;HTU21D;51788;45.124;38.966;2023-05-27T02:54:08;19.29;88.00
65203;HTU21D;51788;45.124;38.966;2023-05-27T02:56:34;19.33;88.00
65203;HTU21D;51788;45.124;38.966;2023-05-27T02:59:00;19.35;87.98
65203;HTU21D;51788;45.124;38.966;2023-05-27T03:01:26;19.33;87.96
65203;HTU21D;51788;45.124;38.966;2023-05-27T03:03:52;19.26;88.09
65203;HTU21D;51788;45.124;38.966;2023-05-27T03:06:19;19.18;88.33
65203;HTU21D;51788;45.124;38.966;2023-05-27T03:08:45;19.14;88.48
65203;HTU21D;51788;45.124;38.966;2023-05-27T03:11:11;19.16;88.48
65203;HTU21D;51788;45.124;38.966;2023-05-27T03:13:37;19.15;88.44
65203;HTU21D;51788;45.124;38.966;2023-05-27T03:16:04;19.13;88.49
65203;HTU21D;51788;45.124;38.966;2023-05-27T03:18:31;19.16;88.48
65203;HTU21D;51788;45.124;38.966;2023-05-27T03:20:57;19.20;88.46
65203;HTU21D;51788;45.124;38.966;2023-05-27T03:23:23;19.24;88.40
65203;HTU21D;51788;45.124;38.966;2023-05-27T03:25:50;19.26;88.42
65203;HTU21D;51788;45.124;38.966;2023-05-27T03:28:16;19.28;88.34
65203;HTU21D;51788;45.124;38.966;2023-05-27T03:30:42;19.30;88.33
65203;HTU21D;51788;45.124;38.966;2023-05-27T03:33:15;19.27;88.35
65203;HTU21D;51788;45.124;38.966;2023-05-27T03:35:41;19.29;88.41
65203;HTU21D;51788;45.124;38.966;2023-05-27T03:38:07;19.33;88.39
65203;HTU21D;51788;45.124;38.966;2023-05-27T03:40:33;19.31;88.36
65203;HTU21D;51788;45.124;38.966;2023-05-27T03:42:59;19.30;88.44
65203;HTU21D;51788;45.124;38.966;2023-05-27T03:45:25;19.32;88.40
65203;HTU21D;51788;45.124;38.966;2023-05-27T03:47:52;19.35;88.35
65203;HTU21D;51788;45.124;38.966;2023-05-27T03:50:20;19.33;88.35
65203;HTU21D;51788;45.124;38.966;2023-05-27T03:52:46;19.36;88.36
65203;HTU21D;51788;45.124;38.966;2023-05-27T03:55:12;19.39;88.31
65203;HTU21D;51788;45.124;38.966;2023-05-27T03:57:39;19.38;88.26
65203;HTU21D;51788;45.124;38.966;2023-05-27T04:00:06;19.37;88.28
65203;HTU21D;51788;45.124;38.966;2023-05-27T04:02:48;19.38;88.25
65203;HTU21D;51788;45.124;38.966;2023-05-27T04:05:14;19.41;88.22
65203;HTU21D;51788;45.124;38.966;2023-05-27T04:07:42;19.45;88.12
65203;HTU21D;51788;45.124;38.966;2023-05-27T04:10:08;19.47;88.08
65203;HTU21D;51788;45.124;38.966;2023-05-27T04:12:35;19.52;88.03
65203;HTU21D;51788;45.124;38.966;2023-05-27T04:15:01;19.57;87.94
65203;HTU21D;51788;45.124;38.966;2023-05-27T04:17:30;19.61;87.80
65203;HTU21D;51788;45.124;38.966;2023-05-27T04:19:56;19.62;87.73
65203;HTU21D;51788;45.124;38.966;2023-05-27T04:22:23;19.65;87.72
65203;HTU21D;51788;45.124;38.966;2023-05-27T04:24:49;19.68;87.63
65203;HTU21D;51788;45.124;38.966;2023-05-27T04:27:16;19.72;87.55
65203;HTU21D;51788;45.124;38.966;2023-05-27T04:29:45;19.74;87.45
65203;HTU21D;51788;45.124;38.966;2023-05-27T04:32:12;19.80;87.32
65203;HTU21D;51788;45.124;38.966;2023-05-27T04:34:39;19.84;87.19
65203;HTU21D;51788;45.124;38.966;2023-05-27T04:37:07;19.89;87.04
65203;HTU21D;51788;45.124;38.966;2023-05-27T04:39:36;19.95;86.96
65203;HTU21D;51788;45.124;38.966;2023-05-27T04:42:03;20.02;86.84
65203;HTU21D;51788;45.124;38.966;2023-05-27T04:44:30;20.06;86.76
65203;HTU21D;51788;45.124;38.966;2023-05-27T04:46:58;20.10;86.71
65203;HTU21D;51788;45.124;38.966;2023-05-27T04:49:24;20.13;86.62
65203;HTU21D;51788;45.124;38.966;2023-05-27T04:51:52;20.16;86.51
65203;HTU21D;51788;45.124;38.966;2023-05-27T04:54:20;20.19;86.39
65203;HTU21D;51788;45.124;38.966;2023-05-27T04:56:47;20.28;86.22
65203;HTU21D;51788;45.124;38.966;2023-05-27T04:59:19;20.35;85.94
65203;HTU21D;51788;45.124;38.966;2023-05-27T05:01:47;20.41;85.79
65203;HTU21D;51788;45.124;38.966;2023-05-27T05:04:34;20.47;85.52
65203;HTU21D;51788;45.124;38.966;2023-05-27T05:07:02;20.55;85.35
65203;HTU21D;51788;45.124;38.966;2023-05-27T05:09:31;20.62;85.14
65203;HTU21D;51788;45.124;38.966;2023-05-27T05:12:03;20.66;84.95
65203;HTU21D;51788;45.124;38.966;2023-05-27T05:14:35;20.64;84.88
65203;HTU21D;51788;45.124;38.966;2023-05-27T05:17:02;20.65;84.85
65203;HTU21D;51788;45.124;38.966;2023-05-27T05:19:28;20.71;84.76
65203;HTU21D;51788;45.124;38.966;2023-05-27T05:21:54;20.81;84.39
65203;HTU21D;51788;45.124;38.966;2023-05-27T05:24:20;20.88;84.13
65203;HTU21D;51788;45.124;38.966;2023-05-27T05:26:47;21.00;83.66
65203;HTU21D;51788;45.124;38.966;2023-05-27T05:29:13;21.11;83.16
65203;HTU21D;51788;45.124;38.966;2023-05-27T05:31:40;21.25;82.69
65203;HTU21D;51788;45.124;38.966;2023-05-27T05:34:08;21.35;82.36
65203;HTU21D;51788;45.124;38.966;2023-05-27T05:36:35;21.46;82.06
65203;HTU21D;51788;45.124;38.966;2023-05-27T05:39:08;21.62;81.62
65203;HTU21D;51788;45.124;38.966;2023-05-27T05:41:38;21.65;81.48
65203;HTU21D;51788;45.124;38.966;2023-05-27T05:44:04;21.73;81.20
65203;HTU21D;51788;45.124;38.966;2023-05-27T05:46:31;21.79;80.98
65203;HTU21D;51788;45.124;38.966;2023-05-27T05:48:57;21.80;80.78
65203;HTU21D;51788;45.124;38.966;2023-05-27T05:51:37;21.80;80.59
65203;HTU21D;51788;45.124;38.966;2023-05-27T05:54:03;21.74;80.37
65203;HTU21D;51788;45.124;38.966;2023-05-27T05:56:32;21.76;80.23
65203;HTU21D;51788;45.124;38.966;2023-05-27T05:58:59;21.80;79.91
65203;HTU21D;51788;45.124;38.966;2023-05-27T06:01:28;21.80;79.70
65203;HTU21D;51788;45.124;38.966;2023-05-27T06:03:55;21.79;79.57
65203;HTU21D;51788;45.124;38.966;2023-05-27T06:06:36;21.79;79.47
65203;HTU21D;51788;45.124;38.966;2023-05-27T06:09:18;21.76;79.60
65203;HTU21D;51788;45.124;38.966;2023-05-27T06:11:45;21.85;79.12
65203;HTU21D;51788;45.124;38.966;2023-05-27T06:14:11;21.88;78.74
65203;HTU21D;51788;45.124;38.966;2023-05-27T06:16:37;21.90;78.72
65203;HTU21D;51788;45.124;38.966;2023-05-27T06:19:06;21.96;78.68
65203;HTU21D;51788;45.124;38.966;2023-05-27T06:21:32;22.05;78.40
65203;HTU21D;51788;45.124;38.966;2023-05-27T06:24:37;22.01;78.40
65203;HTU21D;51788;45.124;38.966;2023-05-27T06:27:26;21.99;78.45
65203;HTU21D;51788;45.124;38.966;2023-05-27T06:29:53;21.98;78.28
65203;HTU21D;51788;45.124;38.966;2023-05-27T06:32:29;21.95;78.33
65203;HTU21D;51788;45.124;38.966;2023-05-27T06:34:55;21.95;78.37
65203;HTU21D;51788;45.124;38.966;2023-05-27T06:37:23;21.97;78.38
65203;HTU21D;51788;45.124;38.966;2023-05-27T06:39:49;21.90;78.36
65203;HTU21D;51788;45.124;38.966;2023-05-27T06:42:16;21.78;78.90
65203;HTU21D;51788;45.124;38.966;2023-05-27T06:45:14;21.93;78.50
65203;HTU21D;51788;45.124;38.966;2023-05-27T06:47:41;21.98;78.29
65203;HTU21D;51788;45.124;38.966;2023-05-27T06:50:07;21.90;78.31
65203;HTU21D;51788;45.124;38.966;2023-05-27T06:52:33;21.81;78.43
65203;HTU21D;51788;45.124;38.966;2023-05-27T06:55:18;21.89;78.11
65203;HTU21D;51788;45.124;38.966;2023-05-27T06:58:02;22.05;77.52
65203;HTU21D;51788;45.124;38.966;2023-05-27T07:00:39;22.17;77.15
65203;HTU21D;51788;45.124;38.966;2023-05-27T07:03:19;22.17;77.05
65203;HTU21D;51788;45.124;38.966;2023-05-27T07:05:45;22.27;76.76
65203;HTU21D;51788;45.124;38.966;2023-05-27T07:08:12;22.44;76.47
65203;HTU21D;51788;45.124;38.966;2023-05-27T07:10:40;22.68;75.97
65203;HTU21D;51788;45.124;38.966;2023-05-27T07:13:07;22.88;75.60
65203;HTU21D;51788;45.124;38.966;2023-05-27T07:15:47;22.72;75.76
65203;HTU21D;51788;45.124;38.966;2023-05-27T07:18:14;22.85;75.25
65203;HTU21D;51788;45.124;38.966;2023-05-27T07:20:43;22.99;74.63
65203;HTU21D;51788;45.124;38.966;2023-05-27T07:23:11;23.05;74.35
65203;HTU21D;51788;45.124;38.966;2023-05-27T07:25:39;23.14;74.11
65203;HTU21D;51788;45.124;38.966;2023-05-27T07:28:06;23.21;73.86
65203;HTU21D;51788;45.124;38.966;2023-05-27T07:30:39;23.00;74.57
65203;HTU21D;51788;45.124;38.966;2023-05-27T07:33:06;22.98;74.77
65203;HTU21D;51788;45.124;38.966;2023-05-27T07:35:32;23.16;74.38
65203;HTU21D;51788;45.124;38.966;2023-05-27T07:37:58;23.40;73.50
65203;HTU21D;51788;45.124;38.966;2023-05-27T07:40:24;23.50;73.17
65203;HTU21D;51788;45.124;38.966;2023-05-27T07:42:50;23.26;73.64
65203;HTU21D;51788;45.124;38.966;2023-05-27T07:45:17;22.95;74.64
65203;HTU21D;51788;45.124;38.966;2023-05-27T07:47:43;23.05;74.68
65203;HTU21D;51788;45.124;38.966;2023-05-27T07:50:09;23.27;74.21
65203;HTU21D;51788;45.124;38.966;2023-05-27T07:52:35;23.39;73.80
65203;HTU21D;51788;45.124;38.966;2023-05-27T07:55:08;23.24;74.12
65203;HTU21D;51788;45.124;38.966;2023-05-27T07:57:34;23.13;74.64
65203;HTU21D;51788;45.124;38.966;2023-05-27T08:00:01;23.23;74.35
65203;HTU21D;51788;45.124;38.966;2023-05-27T08:02:47;23.36;73.75
65203;HTU21D;51788;45.124;38.966;2023-05-27T08:05:14;23.34;73.64
65203;HTU21D;51788;45.124;38.966;2023-05-27T08:08:19;23.40;73.76
65203;HTU21D;51788;45.124;38.966;2023-05-27T08:11:05;23.53;73.19
65203;HTU21D;51788;45.124;38.966;2023-05-27T08:13:49;23.66;72.70
65203;HTU21D;51788;45.124;38.966;2023-05-27T08:16:36;23.60;72.71
65203;HTU21D;51788;45.124;38.966;2023-05-27T08:19:22;23.37;73.17
65203;HTU21D;51788;45.124;38.966;2023-05-27T08:22:11;23.47;73.15
65203;HTU21D;51788;45.124;38.966;2023-05-27T08:24:55;23.54;72.96
65203;HTU21D;51788;45.124;38.966;2023-05-27T08:27:48;23.41;73.06
65203;HTU21D;51788;45.124;38.966;2023-05-27T08:30:27;23.38;73.10
65203;HTU21D;51788;45.124;38.966;2023-05-27T08:33:02;23.34;73.04
65203;HTU21D;51788;45.124;38.966;2023-05-27T08:35:29;23.27;73.48
65203;HTU21D;51788;45.124;38.966;2023-05-27T08:37:55;23.27;73.58
65203;HTU21D;51788;45.124;38.966;2023-05-27T08:40:24;23.37;73.33
65203;HTU21D;51788;45.124;38.966;2023-05-27T08:42:52;23.40;73.11
65203;HTU21D;51788;45.124;38.966;2023-05-27T08:45:18;23.40;73.22
65203;HTU21D;51788;45.124;38.966;2023-05-27T08:47:45;23.42;73.17
65203;HTU21D;51788;45.124;38.966;2023-05-27T08:50:18;23.54;72.93
65203;HTU21D;51788;45.124;38.966;2023-05-27T08:52:52;23.64;72.45
65203;HTU21D;51788;45.124;38.966;2023-05-27T08:55:20;23.66;72.40
65203;HTU21D;51788;45.124;38.966;2023-05-27T08:57:57;23.70;72.36
65203;HTU21D;51788;45.124;38.966;2023-05-27T09:00:29;23.58;72.26
65203;HTU21D;51788;45.124;38.966;2023-05-27T09:03:02;23.50;72.33
65203;HTU21D;51788;45.124;38.966;2023-05-27T09:05:31;23.54;72.21
65203;HTU21D;51788;45.124;38.966;2023-05-27T09:07:57;23.59;72.03
65203;HTU21D;51788;45.124;38.966;2023-05-27T09:10:23;23.56;72.07
65203;HTU21D;51788;45.124;38.966;2023-05-27T09:12:50;23.42;72.54
65203;HTU21D;51788;45.124;38.966;2023-05-27T09:15:16;23.52;72.44
65203;HTU21D;51788;45.124;38.966;2023-05-27T09:17:43;23.44;72.40
65203;HTU21D;51788;45.124;38.966;2023-05-27T09:20:10;23.45;72.52
65203;HTU21D;51788;45.124;38.966;2023-05-27T09:22:38;23.59;72.17
65203;HTU21D;51788;45.124;38.966;2023-05-27T09:25:05;23.66;72.08
65203;HTU21D;51788;45.124;38.966;2023-05-27T09:27:32;23.69;71.93
65203;HTU21D;51788;45.124;38.966;2023-05-27T09:30:06;23.60;72.03
65203;HTU21D;51788;45.124;38.966;2023-05-27T09:32:33;23.32;72.61
65203;HTU21D;51788;45.124;38.966;2023-05-27T09:35:00;23.27;72.80
65203;HTU21D;51788;45.124;38.966;2023-05-27T09:37:31;23.28;72.90
65203;HTU21D;51788;45.124;38.966;2023-05-27T09:40:05;23.25;72.94
65203;HTU21D;51788;45.124;38.966;2023-05-27T09:42:43;23.27;73.03
65203;HTU21D;51788;45.124;38.966;2023-05-27T09:45:15;23.36;72.80
65203;HTU21D;51788;45.124;38.966;2023-05-27T09:47:46;23.32;72.64
65203;HTU21D;51788;45.124;38.966;2023-05-27T09:50:13;23.38;72.64
65203;HTU21D;51788;45.124;38.966;2023-05-27T09:52:44;23.37;72.64
65203;HTU21D;51788;45.124;38.966;2023-05-27T09:55:11;23.51;72.55
65203;HTU21D;51788;45.124;38.966;2023-05-27T09:57:39;23.76;72.22
65203;HTU21D;51788;45.124;38.966;2023-05-27T10:00:07;23.97;71.67
65203;HTU21D;51788;45.124;38.966;2023-05-27T10:02:45;24.02;71.56
65203;HTU21D;51788;45.124;38.966;2023-05-27T10:05:13;24.21;70.73
65203;HTU21D;51788;45.124;38.966;2023-05-27T10:07:44;24.10;71.12
65203;HTU21D;51788;45.124;38.966;2023-05-27T10:10:11;23.96;71.37
65203;HTU21D;51788;45.124;38.966;2023-05-27T10:12:44;23.89;71.45
65203;HTU21D;51788;45.124;38.966;2023-05-27T10:15:24;23.98;71.26
65203;HTU21D;51788;45.124;38.966;2023-05-27T10:17:58;24.02;71.10
65203;HTU21D;51788;45.124;38.966;2023-05-27T10:20:27;23.91;71.19
65203;HTU21D;51788;45.124;38.966;2023-05-27T10:22:54;23.85;71.29
65203;HTU21D;51788;45.124;38.966;2023-05-27T10:25:20;23.70;71.80
65203;HTU21D;51788;45.124;38.966;2023-05-27T10:27:47;23.55;72.25
65203;HTU21D;51788;45.124;38.966;2023-05-27T10:30:14;23.57;72.29
65203;HTU21D;51788;45.124;38.966;2023-05-27T10:32:47;23.54;72.36
65203;HTU21D;51788;45.124;38.966;2023-05-27T10:35:18;23.60;72.15
65203;HTU21D;51788;45.124;38.966;2023-05-27T10:37:46;23.56;72.22
65203;HTU21D;51788;45.124;38.966;2023-05-27T10:40:12;23.69;72.10
65203;HTU21D;51788;45.124;38.966;2023-05-27T10:42:58;23.86;71.58
65203;HTU21D;51788;45.124;38.966;2023-05-27T10:45:31;23.86;71.22
65203;HTU21D;51788;45.124;38.966;2023-05-27T10:47:59;23.90;71.15
65203;HTU21D;51788;45.124;38.966;2023-05-27T10:50:31;23.94;70.73
65203;HTU21D;51788;45.124;38.966;2023-05-27T10:52:59;23.92;70.93
65203;HTU21D;51788;45.124;38.966;2023-05-27T10:55:25;24.08;70.61
65203;HTU21D;51788;45.124;38.966;2023-05-27T10:57:52;23.95;70.82
65203;HTU21D;51788;45.124;38.966;2023-05-27T11:00:19;23.77;71.04
65203;HTU21D;51788;45.124;38.966;2023-05-27T11:02:46;23.73;71.19
65203;HTU21D;51788;45.124;38.966;2023-05-27T11:05:18;23.84;71.06
65203;HTU21D;51788;45.124;38.966;2023-05-27T11:07:45;23.81;70.77
65203;HTU21D;51788;45.124;38.966;2023-05-27T11:10:11;23.66;70.96
65203;HTU21D;51788;45.124;38.966;2023-05-27T11:12:37;23.62;71.20
65203;HTU21D;51788;45.124;38.966;2023-05-27T11:15:03;23.79;71.03
65203;HTU21D;51788;45.124;38.966;2023-05-27T11:17:30;24.02;70.23
65203;HTU21D;51788;45.124;38.966;2023-05-27T11:19:56;24.26;69.59
65203;HTU21D;51788;45.124;38.966;2023-05-27T11:22:22;24.31;69.37
65203;HTU21D;51788;45.124;38.966;2023-05-27T11:25:02;24.44;69.17
65203;HTU21D;51788;45.124;38.966;2023-05-27T11:27:35;24.42;69.32
65203;HTU21D;51788;45.124;38.966;2023-05-27T11:30:15;24.47;69.46
65203;HTU21D;51788;45.124;38.966;2023-05-27T11:32:41;24.59;69.09
65203;HTU21D;51788;45.124;38.966;2023-05-27T11:35:15;24.57;69.10
65203;HTU21D;51788;45.124;38.966;2023-05-27T11:37:53;24.50;69.03
65203;HTU21D;51788;45.124;38.966;2023-05-27T11:40:19;24.32;69.19
65203;HTU21D;51788;45.124;38.966;2023-05-27T11:42:46;24.21;69.10
65203;HTU21D;51788;45.124;38.966;2023-05-27T11:45:20;24.18;69.43
65203;HTU21D;51788;45.124;38.966;2023-05-27T11:47:46;24.41;68.94
65203;HTU21D;51788;45.124;38.966;2023-05-27T11:50:17;24.69;67.81
65203;HTU21D;51788;45.124;38.966;2023-05-27T11:52:54;24.87;67.14
65203;HTU21D;51788;45.124;38.966;2023-05-27T11:55:21;24.84;67.26
65203;HTU21D;51788;45.124;38.966;2023-05-27T11:57:48;24.86;67.20
65203;HTU21D;51788;45.124;38.966;2023-05-27T12:00:14;24.80;66.95
65203;HTU21D;51788;45.124;38.966;2023-05-27T12:02:40;24.77;66.91
65203;HTU21D;51788;45.124;38.966;2023-05-27T12:05:08;24.75;67.02
65203;HTU21D;51788;45.124;38.966;2023-05-27T12:07:34;24.70;67.27
65203;HTU21D;51788;45.124;38.966;2023-05-27T12:10:01;24.73;67.26
65203;HTU21D;51788;45.124;38.966;2023-05-27T12:12:27;24.62;67.26
65203;HTU21D;51788;45.124;38.966;2023-05-27T12:14:59;24.41;67.70
65203;HTU21D;51788;45.124;38.966;2023-05-27T12:17:25;24.24;68.30
65203;HTU21D;51788;45.124;38.966;2023-05-27T12:19:51;24.23;68.39
65203;HTU21D;51788;45.124;38.966;2023-05-27T12:22:17;24.25;68.35
65203;HTU21D;51788;45.124;38.966;2023-05-27T12:24:43;24.34;67.91
65203;HTU21D;51788;45.124;38.966;2023-05-27T12:27:09;24.34;67.83
65203;HTU21D;51788;45.124;38.966;2023-05-27T12:29:35;24.47;67.49
65203;HTU21D;51788;45.124;38.966;2023-05-27T12:32:02;24.35;67.16
65203;HTU21D;51788;45.124;38.966;2023-05-27T12:34:28;24.29;67.17
65203;HTU21D;51788;45.124;38.966;2023-05-27T12:36:54;24.43;66.86
65203;HTU21D;51788;45.124;38.966;2023-05-27T12:39:20;24.57;66.30
65203;HTU21D;51788;45.124;38.966;2023-05-27T12:41:46;24.73;66.15
65203;HTU21D;51788;45.124;38.966;2023-05-27T12:44:12;24.90;65.90
65203;HTU21D;51788;45.124;38.966;2023-05-27T12:46:38;25.05;65.65
65203;HTU21D;51788;45.124;38.966;2023-05-27T12:49:05;25.19;65.59
65203;HTU21D;51788;45.124;38.966;2023-05-27T12:51:31;25.23;65.34
65203;HTU21D;51788;45.124;38.966;2023-05-27T12:53:58;25.20;65.23
65203;HTU21D;51788;45.124;38.966;2023-05-27T12:56:24;25.04;65.60
65203;HTU21D;51788;45.124;38.966;2023-05-27T12:58:50;24.97;65.65
65203;HTU21D;51788;45.124;38.966;2023-05-27T13:01:16;24.86;65.87
65203;HTU21D;51788;45.124;38.966;2023-05-27T13:03:42;24.66;66.14
65203;HTU21D;51788;45.124;38.966;2023-05-27T13:06:08;24.55;66.20
65203;HTU21D;51788;45.124;38.966;2023-05-27T13:08:34;24.55;66.26
65203;HTU21D;51788;45.124;38.966;2023-05-27T13:11:00;24.64;66.04
65203;HTU21D;51788;45.124;38.966;2023-05-27T13:13:26;24.82;65.89
65203;HTU21D;51788;45.124;38.966;2023-05-27T13:15:52;24.90;65.70
65203;HTU21D;51788;45.124;38.966;2023-05-27T13:18:19;24.94;65.56
65203;HTU21D;51788;45.124;38.966;2023-05-27T13:20:45;24.90;65.51
65203;HTU21D;51788;45.124;38.966;2023-05-27T13:23:11;24.73;65.66
65203;HTU21D;51788;45.124;38.966;2023-05-27T13:25:37;24.50;65.86
65203;HTU21D;51788;45.124;38.966;2023-05-27T13:28:03;24.32;66.26
65203;HTU21D;51788;45.124;38.966;2023-05-27T13:30:30;24.31;66.46
65203;HTU21D;51788;45.124;38.966;2023-05-27T13:32:56;24.40;66.30
65203;HTU21D;51788;45.124;38.966;2023-05-27T13:35:22;24.47;66.14
65203;HTU21D;51788;45.124;38.966;2023-05-27T13:37:48;24.51;66.14
65203;HTU21D;51788;45.124;38.966;2023-05-27T13:40:15;24.50;66.01
65203;HTU21D;51788;45.124;38.966;2023-05-27T13:42:41;24.40;66.33
65203;HTU21D;51788;45.124;38.966;2023-05-27T13:45:07;24.33;66.53
65203;HTU21D;51788;45.124;38.966;2023-05-27T13:47:34;24.32;66.69
65203;HTU21D;51788;45.124;38.966;2023-05-27T13:50:00;24.32;66.63
65203;HTU21D;51788;45.124;38.966;2023-05-27T13:52:26;24.38;66.50
65203;HTU21D;51788;45.124;38.966;2023-05-27T13:54:52;24.48;66.52
65203;HTU21D;51788;45.124;38.966;2023-05-27T13:57:18;24.61;66.12
65203;HTU21D;51788;45.124;38.966;2023-05-27T13:59:44;24.62;66.10
65203;HTU21D;51788;45.124;38.966;2023-05-27T14:02:10;24.70;65.93
65203;HTU21D;51788;45.124;38.966;2023-05-27T14:04:36;24.73;65.75
65203;HTU21D;51788;45.124;38.966;2023-05-27T14:07:02;24.76;65.44
65203;HTU21D;51788;45.124;38.966;2023-05-27T14:09:28;24.79;65.21
65203;HTU21D;51788;45.124;38.966;2023-05-27T14:11:54;24.79;65.03
65203;HTU21D;51788;45.124;38.966;2023-05-27T14:14:20;24.74;65.05
65203;HTU21D;51788;45.124;38.966;2023-05-27T14:16:46;24.61;65.28
65203;HTU21D;51788;45.124;38.966;2023-05-27T14:19:13;24.47;65.55
65203;HTU21D;51788;45.124;38.966;2023-05-27T14:21:39;24.41;65.83
65203;HTU21D;51788;45.124;38.966;2023-05-27T14:24:06;24.46;65.84
65203;HTU21D;51788;45.124;38.966;2023-05-27T14:26:32;24.53;65.78
65203;HTU21D;51788;45.124;38.966;2023-05-27T14:28:58;24.48;65.86
65203;HTU21D;51788;45.124;38.966;2023-05-27T14:31:24;24.47;65.92
65203;HTU21D;51788;45.124;38.966;2023-05-27T14:33:50;24.50;65.95
65203;HTU21D;51788;45.124;38.966;2023-05-27T14:36:16;24.63;65.79
65203;HTU21D;51788;45.124;38.966;2023-05-27T14:38:42;24.77;65.51
65203;HTU21D;51788;45.124;38.966;2023-05-27T14:41:09;24.87;65.28
65203;HTU21D;51788;45.124;38.966;2023-05-27T14:43:35;24.84;65.27
65203;HTU21D;51788;45.124;38.966;2023-05-27T14:46:00;24.84;65.49
65203;HTU21D;51788;45.124;38.966;2023-05-27T14:48:26;24.66;65.91
65203;HTU21D;51788;45.124;38.966;2023-05-27T14:50:52;24.56;66.30
65203;HTU21D;51788;45.124;38.966;2023-05-27T14:53:18;24.53;66.53
65203;HTU21D;51788;45.124;38.966;2023-05-27T14:55:44;24.48;66.66
65203;HTU21D;51788;45.124;38.966;2023-05-27T14:58:10;24.41;66.78
65203;HTU21D;51788;45.124;38.966;2023-05-27T15:00:36;24.28;67.07
65203;HTU21D;51788;45.124;38.966;2023-05-27T15:03:03;24.24;67.26
65203;HTU21D;51788;45.124;38.966;2023-05-27T15:05:28;24.26;67.22
65203;HTU21D;51788;45.124;38.966;2023-05-27T15:07:54;24.26;67.26
65203;HTU21D;51788;45.124;38.966;2023-05-27T15:10:20;24.21;67.16
65203;HTU21D;51788;45.124;38.966;2023-05-27T15:12:46;24.19;67.25
65203;HTU21D;51788;45.124;38.966;2023-05-27T15:15:14;24.21;67.26
65203;HTU21D;51788;45.124;38.966;2023-05-27T15:17:41;24.24;67.14
65203;HTU21D;51788;45.124;38.966;2023-05-27T15:20:11;24.24;67.25
65203;HTU21D;51788;45.124;38.966;2023-05-27T15:22:37;24.21;67.24